createdAt,value
2023-03-23T00:00:00.669Z,9.1
2023-03-23T00:01:00.676Z,9.1
2023-03-23T00:02:00.695Z,9.1
2023-03-23T00:03:00.695Z,9.1
2023-03-23T00:04:00.682Z,9.1
2023-03-23T00:05:00.663Z,9.1
2023-03-23T00:06:00.667Z,9.1
2023-03-23T00:07:00.695Z,9.1
2023-03-23T00:08:00.663Z,9.1
2023-03-23T00:09:00.674Z,9.1
2023-03-23T00:10:00.697Z,9.1
2023-03-23T00:11:00.686Z,9.1
2023-03-23T00:12:00.688Z,9.1
2023-03-23T00:13:00.705Z,9.1
2023-03-23T00:14:00.673Z,9.1
2023-03-23T00:15:00.689Z,9.1
2023-03-23T00:16:04.450Z,9.1
2023-03-23T00:17:00.691Z,9.1
2023-03-23T00:18:00.692Z,9.1
2023-03-23T00:19:00.674Z,9.1
2023-03-23T00:20:00.685Z,9.1
2023-03-23T00:21:00.684Z,9.2
2023-03-23T00:22:00.697Z,9.2
2023-03-23T00:23:00.700Z,9.2
2023-03-23T00:24:00.685Z,9.2
2023-03-23T00:25:00.817Z,9.2
2023-03-23T00:26:00.682Z,9.2
2023-03-23T00:27:00.666Z,9.2
2023-03-23T00:28:00.637Z,9.2
2023-03-23T00:29:00.589Z,9.2
2023-03-23T00:30:00.564Z,9.2
2023-03-23T00:31:00.529Z,9.2
2023-03-23T00:32:00.535Z,9.2
2023-03-23T00:33:00.496Z,9.2
2023-03-23T00:34:00.440Z,9.2
2023-03-23T00:35:00.419Z,9.2
2023-03-23T00:36:00.391Z,9.2
2023-03-23T00:37:00.356Z,9.2
2023-03-23T00:38:00.361Z,9.2
2023-03-23T00:39:00.361Z,9.2
2023-03-23T00:40:00.344Z,9.2
2023-03-23T00:41:00.362Z,9.2
2023-03-23T00:42:00.344Z,9.2
2023-03-23T00:43:00.365Z,9.2
2023-03-23T00:44:00.342Z,9.2
2023-03-23T00:45:00.358Z,9.2
2023-03-23T00:46:00.363Z,9.2
2023-03-23T00:47:00.342Z,9.2
2023-03-23T00:48:00.366Z,9.2
2023-03-23T00:49:00.346Z,9.2
2023-03-23T00:50:00.354Z,9.2
2023-03-23T00:51:00.371Z,9.2
2023-03-23T00:52:00.356Z,9.2
2023-03-23T00:53:00.381Z,9.2
2023-03-23T00:54:00.355Z,9.2
2023-03-23T00:55:00.360Z,9.2
2023-03-23T00:56:00.382Z,9.3
2023-03-23T00:57:00.354Z,9.3
2023-03-23T00:58:00.379Z,9.2
2023-03-23T00:59:00.356Z,9.2
2023-03-23T01:00:05.787Z,9.2
2023-03-23T01:01:00.387Z,9.2
2023-03-23T01:02:00.383Z,9.2
2023-03-23T01:03:00.382Z,9.2
2023-03-23T01:04:00.370Z,9.2
2023-03-23T01:05:00.364Z,9.2
2023-03-23T01:06:00.388Z,9.2
2023-03-23T01:07:00.363Z,9.2
2023-03-23T01:08:00.385Z,9.2
2023-03-23T01:09:00.369Z,9.2
2023-03-23T01:10:00.374Z,9.2
2023-03-23T01:11:00.387Z,9.2
2023-03-23T01:12:00.478Z,9.1
2023-03-23T01:13:00.405Z,9.1
2023-03-23T01:14:00.387Z,9.1
2023-03-23T01:15:00.374Z,9.1
2023-03-23T01:16:00.392Z,9.1
2023-03-23T01:17:00.379Z,9.1
2023-03-23T01:18:00.398Z,9.1
2023-03-23T01:19:00.395Z,9.1
2023-03-23T01:20:00.386Z,9.1
2023-03-23T01:21:00.403Z,9.1
2023-03-23T01:22:00.377Z,9.1
2023-03-23T01:23:00.412Z,9.1
2023-03-23T01:24:00.385Z,9
2023-03-23T01:25:00.387Z,9
2023-03-23T01:26:00.401Z,9
2023-03-23T01:27:00.387Z,9
2023-03-23T01:28:01.367Z,9.1
2023-03-23T01:29:00.391Z,9.1
2023-03-23T01:30:00.418Z,9
2023-03-23T01:31:00.409Z,9
2023-03-23T01:32:01.033Z,9
2023-03-23T01:33:00.435Z,9
2023-03-23T01:34:00.396Z,9.1
2023-03-23T01:35:00.413Z,9.1
2023-03-23T01:36:00.444Z,9.1
2023-03-23T01:37:00.394Z,9.1
2023-03-23T01:38:00.396Z,9.1
2023-03-23T01:39:00.399Z,9.1
2023-03-23T01:40:00.429Z,9.1
2023-03-23T01:41:00.433Z,9.1
2023-03-23T01:42:00.428Z,9.1
2023-03-23T01:43:00.413Z,9.1
2023-03-23T01:44:00.417Z,9.1
2023-03-23T01:45:00.427Z,9.1
2023-03-23T01:46:00.424Z,9.1
2023-03-23T01:47:00.532Z,9.1
2023-03-23T01:48:00.407Z,9.1
2023-03-23T01:49:00.411Z,9.1
2023-03-23T01:50:00.445Z,9.1
2023-03-23T01:51:00.434Z,9.1
2023-03-23T01:52:00.416Z,9.1
2023-03-23T01:53:00.417Z,9.2
2023-03-23T01:54:00.417Z,9.2
2023-03-23T01:55:00.450Z,9.2
2023-03-23T01:56:00.451Z,9.2
2023-03-23T01:57:01.281Z,9.2
2023-03-23T01:58:00.427Z,9.2
2023-03-23T01:59:00.498Z,9.2
2023-03-23T02:00:00.450Z,9.2
2023-03-23T02:01:01.320Z,9.2
2023-03-23T02:02:01.387Z,9.2
2023-03-23T02:03:00.786Z,9.2
2023-03-23T02:04:00.618Z,9.3
2023-03-23T02:05:00.638Z,9.3
2023-03-23T02:06:00.578Z,9.3
2023-03-23T02:07:00.538Z,9.3
2023-03-23T02:08:00.717Z,9.3
2023-03-23T02:09:00.649Z,9.3
2023-03-23T02:10:00.784Z,9.4
2023-03-23T02:11:00.518Z,9.4
2023-03-23T02:12:00.493Z,9.4
2023-03-23T02:13:00.494Z,9.4
2023-03-23T02:14:00.460Z,9.4
2023-03-23T02:15:00.478Z,9.4
2023-03-23T02:16:00.479Z,9.4
2023-03-23T02:17:00.474Z,9.4
2023-03-23T02:18:00.472Z,9.4
2023-03-23T02:19:00.462Z,9.4
2023-03-23T02:20:00.445Z,9.4
2023-03-23T02:21:00.485Z,9.4
2023-03-23T02:22:00.463Z,9.4
2023-03-23T02:23:00.500Z,9.4
2023-03-23T02:24:00.460Z,9.4
2023-03-23T02:25:00.479Z,9.4
2023-03-23T02:26:00.483Z,9.5
2023-03-23T02:27:00.463Z,9.5
2023-03-23T02:28:00.473Z,9.5
2023-03-23T02:29:00.472Z,9.5
2023-03-23T02:30:00.454Z,9.4
2023-03-23T02:31:00.514Z,9.4
2023-03-23T02:32:00.454Z,9.5
2023-03-23T02:33:00.456Z,9.4
2023-03-23T02:34:00.675Z,9.5
2023-03-23T02:35:00.457Z,9.5
2023-03-23T02:36:00.502Z,9.5
2023-03-23T02:37:00.463Z,9.5
2023-03-23T02:38:00.463Z,9.4
2023-03-23T02:39:00.461Z,9.4
2023-03-23T02:40:00.483Z,9.4
2023-03-23T02:41:00.502Z,9.4
2023-03-23T02:42:00.493Z,9.4
2023-03-23T02:43:00.483Z,9.4
2023-03-23T02:44:00.483Z,9.5
2023-03-23T02:45:00.496Z,9.5
2023-03-23T02:46:00.472Z,9.5
2023-03-23T02:47:00.496Z,9.5
2023-03-23T02:48:00.509Z,9.5
2023-03-23T02:49:00.483Z,9.5
2023-03-23T02:50:00.531Z,9.5
2023-03-23T02:51:00.493Z,9.5
2023-03-23T02:52:00.488Z,9.5
2023-03-23T02:53:00.501Z,9.5
2023-03-23T02:54:00.479Z,9.5
2023-03-23T02:55:00.494Z,9.6
2023-03-23T02:56:00.506Z,9.6
2023-03-23T02:57:00.493Z,9.6
2023-03-23T02:58:00.504Z,9.6
2023-03-23T02:59:00.479Z,9.6
2023-03-23T03:00:00.485Z,9.6
2023-03-23T03:01:01.273Z,9.6
2023-03-23T03:02:01.262Z,9.6
2023-03-23T03:03:01.285Z,9.6
2023-03-23T03:04:01.264Z,9.6
2023-03-23T03:05:01.268Z,9.6
2023-03-23T03:06:01.264Z,9.6
2023-03-23T03:07:01.299Z,9.6
2023-03-23T03:08:01.303Z,9.6
2023-03-23T03:09:01.293Z,9.6
2023-03-23T03:10:01.301Z,9.6
2023-03-23T03:11:01.300Z,9.6
2023-03-23T03:12:01.299Z,9.6
2023-03-23T03:13:01.299Z,9.6
2023-03-23T03:14:01.276Z,9.6
2023-03-23T03:15:01.335Z,9.5
2023-03-23T03:16:01.283Z,9.5
2023-03-23T03:17:01.278Z,9.5
2023-03-23T03:18:01.311Z,9.4
2023-03-23T03:19:01.303Z,9.4
2023-03-23T03:20:01.345Z,9.4
2023-03-23T03:21:01.284Z,9.4
2023-03-23T03:22:01.289Z,9.4
2023-03-23T03:23:01.314Z,9.4
2023-03-23T03:24:01.290Z,9.4
2023-03-23T03:25:01.294Z,9.4
2023-03-23T03:26:01.315Z,9.4
2023-03-23T03:27:01.289Z,9.4
2023-03-23T03:28:02.171Z,9.4
2023-03-23T03:29:01.331Z,9.4
2023-03-23T03:30:01.383Z,9.4
2023-03-23T03:31:01.300Z,9.4
2023-03-23T03:32:01.336Z,9.4
2023-03-23T03:33:01.323Z,9.3
2023-03-23T03:34:01.327Z,9.3
2023-03-23T03:35:01.301Z,9.3
2023-03-23T03:36:01.361Z,9.3
2023-03-23T03:37:01.310Z,9.2
2023-03-23T03:38:01.355Z,9.2
2023-03-23T03:39:01.353Z,9.2
2023-03-23T03:40:01.389Z,9.2
2023-03-23T03:41:01.349Z,9.2
2023-03-23T03:42:01.338Z,9.2
2023-03-23T03:43:01.326Z,9.2
2023-03-23T03:44:01.323Z,9.2
2023-03-23T03:45:01.325Z,9.1
2023-03-23T03:46:01.316Z,9.1
2023-03-23T03:47:01.340Z,9.1
2023-03-23T03:48:01.344Z,9.1
2023-03-23T03:49:01.350Z,9.1
2023-03-23T03:50:01.356Z,9.1
2023-03-23T03:51:01.324Z,9
2023-03-23T03:52:01.364Z,9
2023-03-23T03:53:01.333Z,8.9
2023-03-23T03:54:01.338Z,8.9
2023-03-23T03:55:01.345Z,8.9
2023-03-23T03:56:01.346Z,8.9
2023-03-23T03:57:01.327Z,8.9
2023-03-23T03:58:01.378Z,8.9
2023-03-23T03:59:21.692Z,9
2023-03-23T04:00:01.392Z,9
2023-03-23T04:01:01.355Z,9
2023-03-23T04:02:01.345Z,8.9
2023-03-23T04:03:01.347Z,8.9
2023-03-23T04:04:01.345Z,8.9
2023-03-23T04:05:01.361Z,8.9
2023-03-23T04:06:01.397Z,8.9
2023-03-23T04:07:01.354Z,8.9
2023-03-23T04:08:09.352Z,8.9
2023-03-23T04:09:07.819Z,8.9
2023-03-23T04:10:01.371Z,8.9
2023-03-23T04:11:01.365Z,8.9
2023-03-23T04:12:01.363Z,8.9
2023-03-23T04:13:01.372Z,8.9
2023-03-23T04:14:01.375Z,8.9
2023-03-23T04:15:06.252Z,8.9
2023-03-23T04:16:07.348Z,8.9
2023-03-23T04:17:01.356Z,9
2023-03-23T04:18:01.356Z,9
2023-03-23T04:19:01.363Z,9
2023-03-23T04:20:01.433Z,9
2023-03-23T04:21:01.396Z,9
2023-03-23T04:22:01.357Z,9
2023-03-23T04:23:01.365Z,9
2023-03-23T04:24:01.365Z,9
2023-03-23T04:25:01.358Z,9.1
2023-03-23T04:26:01.380Z,9.1
2023-03-23T04:27:02.847Z,9.1
2023-03-23T04:28:01.713Z,9.1
2023-03-23T04:29:01.360Z,9.1
2023-03-23T04:30:01.380Z,9.1
2023-03-23T04:31:01.384Z,9.1
2023-03-23T04:32:01.389Z,9.1
2023-03-23T04:33:01.388Z,9.1
2023-03-23T04:34:01.432Z,9.1
2023-03-23T04:35:13.029Z,9.1
2023-03-23T04:36:01.437Z,9.1
2023-03-23T04:37:01.394Z,9.1
2023-03-23T04:38:01.378Z,9.1
2023-03-23T04:39:01.371Z,9.1
2023-03-23T04:40:01.411Z,9.1
2023-03-23T04:41:01.396Z,9.1
2023-03-23T04:42:01.372Z,9.1
2023-03-23T04:43:01.375Z,9.1
2023-03-23T04:44:01.372Z,9.1
2023-03-23T04:45:01.404Z,9.1
2023-03-23T04:46:01.403Z,9
2023-03-23T04:47:01.391Z,9
2023-03-23T04:48:01.396Z,9
2023-03-23T04:49:01.388Z,8.9
2023-03-23T04:50:01.422Z,8.9
2023-03-23T04:51:01.390Z,8.9
2023-03-23T04:52:01.384Z,8.9
2023-03-23T04:53:01.405Z,8.9
2023-03-23T04:54:01.408Z,8.9
2023-03-23T04:55:01.413Z,8.9
2023-03-23T04:56:01.411Z,8.9
2023-03-23T04:57:01.455Z,8.9
2023-03-23T04:58:01.388Z,8.9
2023-03-23T04:59:01.413Z,8.9
2023-03-23T05:00:01.508Z,8.8
2023-03-23T05:01:01.454Z,8.8
2023-03-23T05:02:14.479Z,8.8
2023-03-23T05:03:01.415Z,8.8
2023-03-23T05:04:01.419Z,8.8
2023-03-23T05:05:01.433Z,8.8
2023-03-23T05:06:01.423Z,8.8
2023-03-23T05:07:01.412Z,8.8
2023-03-23T05:08:01.405Z,8.8
2023-03-23T05:09:01.412Z,8.8
2023-03-23T05:10:01.490Z,8.8
2023-03-23T05:11:01.426Z,8.8
2023-03-23T05:12:01.434Z,8.8
2023-03-23T05:13:01.431Z,8.8
2023-03-23T05:14:01.405Z,8.7
2023-03-23T05:15:01.452Z,8.6
2023-03-23T05:16:01.430Z,8.6
2023-03-23T05:17:01.413Z,8.6
2023-03-23T05:18:01.409Z,8.6
2023-03-23T05:19:01.429Z,8.6
2023-03-23T05:20:01.457Z,8.5
2023-03-23T05:21:01.430Z,8.6
2023-03-23T05:22:01.418Z,8.5
2023-03-23T05:23:01.415Z,8.4
2023-03-23T05:24:01.449Z,8.4
2023-03-23T05:25:01.447Z,8.4
2023-03-23T05:26:01.443Z,8.4
2023-03-23T05:27:01.424Z,8.4
2023-03-23T05:28:01.416Z,8.4
2023-03-23T05:29:02.386Z,8.4
2023-03-23T05:30:01.525Z,8.3
2023-03-23T05:31:01.446Z,8.4
2023-03-23T05:32:01.638Z,8.4
2023-03-23T05:33:01.425Z,8.4
2023-03-23T05:34:01.421Z,8.4
2023-03-23T05:35:01.469Z,8.4
2023-03-23T05:36:01.430Z,8.4
2023-03-23T05:37:01.473Z,8.4
2023-03-23T05:38:02.190Z,8.4
2023-03-23T05:39:01.427Z,8.4
2023-03-23T05:40:01.487Z,8.4
2023-03-23T05:41:01.439Z,8.4
2023-03-23T05:42:01.457Z,8.4
2023-03-23T05:43:01.432Z,8.5
2023-03-23T05:44:01.430Z,8.6
2023-03-23T05:45:01.498Z,8.6
2023-03-23T05:46:01.448Z,8.6
2023-03-23T05:47:01.468Z,8.6
2023-03-23T05:48:01.442Z,8.6
2023-03-23T05:49:01.439Z,8.6
2023-03-23T05:50:01.480Z,8.7
2023-03-23T05:51:01.436Z,8.7
2023-03-23T05:52:01.443Z,8.7
2023-03-23T05:53:01.441Z,8.8
2023-03-23T05:54:01.465Z,8.8
2023-03-23T05:55:01.441Z,8.8
2023-03-23T05:56:01.465Z,8.8
2023-03-23T05:57:01.467Z,8.8
2023-03-23T05:58:01.515Z,8.8
2023-03-23T05:59:01.476Z,8.8
2023-03-23T06:00:01.467Z,8.8
2023-03-23T06:01:01.487Z,8.8
2023-03-23T06:02:01.639Z,8.9
2023-03-23T06:05:02.158Z,8.9
2023-03-23T06:06:01.386Z,8.9
2023-03-23T06:07:01.387Z,8.9
2023-03-23T06:08:01.389Z,8.9
2023-03-23T06:09:01.388Z,8.9
2023-03-23T06:10:01.410Z,8.9
2023-03-23T06:11:01.406Z,8.9
2023-03-23T06:12:01.412Z,8.9
2023-03-23T06:13:01.384Z,8.9
2023-03-23T06:14:01.376Z,9
2023-03-23T06:15:01.390Z,9
2023-03-23T06:16:01.401Z,9
2023-03-23T06:17:01.397Z,9.1
2023-03-23T06:18:01.399Z,9.1
2023-03-23T06:19:01.380Z,9.1
2023-03-23T06:20:01.405Z,9.1
2023-03-23T06:21:01.423Z,9.2
2023-03-23T06:22:01.403Z,9.2
2023-03-23T06:23:01.411Z,9.2
2023-03-23T06:24:01.386Z,9.2
2023-03-23T06:25:01.434Z,9.3
2023-03-23T06:26:03.974Z,9.3
2023-03-23T06:27:01.408Z,9.4
2023-03-23T06:28:00.328Z,9.4
2023-03-23T06:29:00.323Z,9.4
2023-03-23T06:30:00.339Z,9.4
2023-03-23T06:31:00.344Z,9.5
2023-03-23T06:32:00.331Z,9.5
2023-03-23T06:33:00.323Z,9.5
2023-03-23T06:34:00.329Z,9.6
2023-03-23T06:35:00.355Z,9.6
2023-03-23T06:36:00.389Z,9.6
2023-03-23T06:37:00.328Z,9.6
2023-03-23T06:38:00.345Z,9.7
2023-03-23T06:39:00.329Z,9.7
2023-03-23T06:40:00.344Z,9.8
2023-03-23T06:41:00.349Z,9.8
2023-03-23T06:42:00.353Z,9.8
2023-03-23T06:43:00.362Z,9.9
2023-03-23T06:44:00.349Z,9.9
2023-03-23T06:45:00.354Z,9.9
2023-03-23T06:46:00.329Z,9.9
2023-03-23T06:47:00.330Z,10
2023-03-23T06:48:00.352Z,10.1
2023-03-23T06:49:00.330Z,10.1
2023-03-23T06:50:00.340Z,10.1
2023-03-23T06:51:00.360Z,10.2
2023-03-23T06:52:00.352Z,10.2
2023-03-23T06:53:00.359Z,10.3
2023-03-23T06:54:00.340Z,10.4
2023-03-23T06:55:00.344Z,10.5
2023-03-23T06:56:00.364Z,10.6
2023-03-23T06:57:00.351Z,10.6
2023-03-23T06:58:00.369Z,10.6
2023-03-23T06:59:00.347Z,10.8
2023-03-23T07:00:00.346Z,10.8
2023-03-23T07:01:00.347Z,10.8
2023-03-23T07:02:00.360Z,10.9
2023-03-23T07:03:00.375Z,10.9
2023-03-23T07:04:00.339Z,11
2023-03-23T07:05:00.407Z,11.1
2023-03-23T07:06:00.355Z,11.1
2023-03-23T07:07:00.363Z,11.2
2023-03-23T07:08:00.383Z,11.2
2023-03-23T07:09:00.366Z,11.3
2023-03-23T07:10:00.365Z,11.3
2023-03-23T07:11:00.392Z,11.4
2023-03-23T07:12:00.382Z,11.4
2023-03-23T07:13:00.386Z,11.5
2023-03-23T07:14:00.364Z,11.6
2023-03-23T07:15:00.376Z,11.6
2023-03-23T07:16:00.372Z,11.7
2023-03-23T07:17:00.381Z,11.8
2023-03-23T07:18:00.386Z,11.8
2023-03-23T07:19:00.381Z,11.9
2023-03-23T07:20:00.394Z,11.9
2023-03-23T07:21:00.362Z,12
2023-03-23T07:22:00.377Z,12.1
2023-03-23T07:23:00.364Z,12.1
2023-03-23T07:24:00.391Z,12.2
2023-03-23T07:25:00.383Z,12.3
2023-03-23T07:26:00.409Z,12.3
2023-03-23T07:27:00.389Z,12.4
2023-03-23T07:28:00.387Z,12.4
2023-03-23T07:29:00.398Z,12.5
2023-03-23T07:30:00.386Z,12.6
2023-03-23T07:31:00.389Z,12.6
2023-03-23T07:32:00.388Z,12.8
2023-03-23T07:33:00.517Z,12.8
2023-03-23T07:34:00.386Z,12.8
2023-03-23T07:35:00.389Z,12.9
2023-03-23T07:36:00.437Z,12.9
2023-03-23T07:37:00.413Z,13
2023-03-23T07:38:00.403Z,13
2023-03-23T07:39:00.382Z,13.1
2023-03-23T07:40:00.389Z,13.1
2023-03-23T07:41:00.379Z,13.2
2023-03-23T07:42:00.395Z,13.3
2023-03-23T07:43:00.422Z,13.4
2023-03-23T07:44:00.379Z,13.5
2023-03-23T07:45:00.407Z,13.5
2023-03-23T07:46:00.391Z,13.6
2023-03-23T07:47:00.397Z,13.6
2023-03-23T07:48:01.953Z,13.7
2023-03-23T07:49:00.409Z,13.7
2023-03-23T07:50:00.405Z,13.8
2023-03-23T07:51:00.417Z,13.8
2023-03-23T07:52:00.408Z,13.8
2023-03-23T07:53:00.417Z,13.8
2023-03-23T07:54:01.209Z,13.9
2023-03-23T07:55:00.408Z,13.9
2023-03-23T07:56:00.405Z,13.9
2023-03-23T07:57:00.396Z,13.9
2023-03-23T07:58:00.836Z,14
2023-03-23T07:59:00.602Z,14
2023-03-23T08:00:00.412Z,14
2023-03-23T08:01:00.399Z,14
2023-03-23T08:02:00.423Z,14
2023-03-23T08:03:00.426Z,14.1
2023-03-23T08:04:00.428Z,14
2023-03-23T08:05:00.430Z,14
2023-03-23T08:06:00.422Z,14
2023-03-23T08:07:00.426Z,13.9
2023-03-23T08:08:00.459Z,13.9
2023-03-23T08:09:00.407Z,13.9
2023-03-23T08:10:00.492Z,13.9
2023-03-23T08:11:00.412Z,13.9
2023-03-23T08:12:00.428Z,13.9
2023-03-23T08:13:00.431Z,13.9
2023-03-23T08:14:00.444Z,13.9
2023-03-23T08:15:00.457Z,13.9
2023-03-23T08:16:00.418Z,13.9
2023-03-23T08:17:00.426Z,14
2023-03-23T08:18:00.432Z,14.1
2023-03-23T08:19:00.433Z,14.1
2023-03-23T08:20:00.526Z,14.1
2023-03-23T08:21:00.441Z,14.1
2023-03-23T08:22:00.463Z,14.1
2023-03-23T08:23:00.440Z,14.2
2023-03-23T08:24:00.423Z,14.2
2023-03-23T08:25:00.445Z,14.2
2023-03-23T08:26:00.428Z,14.2
2023-03-23T08:27:00.440Z,14.2
2023-03-23T08:28:00.441Z,14.2
2023-03-23T08:29:00.427Z,14.2
2023-03-23T08:30:00.431Z,14.2
2023-03-23T08:31:00.442Z,14.2
2023-03-23T08:32:00.446Z,14.2
2023-03-23T08:33:00.428Z,14.3
2023-03-23T08:34:00.449Z,14.4
2023-03-23T08:35:00.457Z,14.4
2023-03-23T08:36:00.485Z,14.4
2023-03-23T08:37:00.461Z,14.5
2023-03-23T08:38:00.441Z,14.5
2023-03-23T08:39:00.461Z,14.5
2023-03-23T08:40:00.558Z,14.5
2023-03-23T08:41:00.446Z,14.5
2023-03-23T08:42:00.438Z,14.5
2023-03-23T08:43:01.269Z,14.5
2023-03-23T08:44:00.444Z,14.5
2023-03-23T08:45:00.458Z,14.6
2023-03-23T08:46:00.519Z,14.6
2023-03-23T08:47:00.440Z,14.6
2023-03-23T08:48:00.474Z,14.7
2023-03-23T08:49:00.468Z,14.8
2023-03-23T08:50:00.492Z,14.8
2023-03-23T08:51:00.469Z,14.8
2023-03-23T08:52:00.460Z,14.8
2023-03-23T08:53:00.474Z,14.8
2023-03-23T08:54:00.455Z,14.8
2023-03-23T08:55:00.477Z,14.8
2023-03-23T08:56:00.450Z,14.9
2023-03-23T08:57:00.485Z,14.9
2023-03-23T08:58:00.478Z,14.9
2023-03-23T08:59:01.536Z,14.9
2023-03-23T09:00:00.507Z,14.9
2023-03-23T09:01:00.455Z,14.9
2023-03-23T09:02:00.484Z,14.9
2023-03-23T09:03:00.464Z,14.9
2023-03-23T09:04:00.494Z,15
2023-03-23T09:05:00.517Z,15.1
2023-03-23T09:06:00.481Z,15.1
2023-03-23T09:07:00.467Z,15.2
2023-03-23T09:08:00.495Z,15.2
2023-03-23T09:09:00.479Z,15.2
2023-03-23T09:10:00.498Z,15.2
2023-03-23T09:11:00.486Z,15.3
2023-03-23T09:12:00.489Z,15.3
2023-03-23T09:13:00.494Z,15.4
2023-03-23T09:14:00.506Z,15.4
2023-03-23T09:15:00.522Z,15.4
2023-03-23T09:16:00.827Z,15.4
2023-03-23T09:17:00.499Z,15.5
2023-03-23T09:18:01.344Z,15.5
2023-03-23T09:19:00.512Z,15.6
2023-03-23T09:20:00.516Z,15.6
2023-03-23T09:21:00.475Z,15.6
2023-03-23T09:22:00.498Z,15.7
2023-03-23T09:23:00.479Z,15.8
2023-03-23T09:24:00.498Z,15.9
2023-03-23T09:25:00.848Z,15.9
2023-03-23T09:26:00.489Z,16
2023-03-23T09:27:00.519Z,16.1
2023-03-23T09:28:00.489Z,16.2
2023-03-23T09:29:00.503Z,16.2
2023-03-23T09:30:00.509Z,16.3
2023-03-23T09:31:00.511Z,16.4
2023-03-23T09:32:00.506Z,16.4
2023-03-23T09:33:00.488Z,16.5
2023-03-23T09:34:00.530Z,16.6
2023-03-23T09:35:00.492Z,16.6
2023-03-23T09:36:00.511Z,16.6
2023-03-23T09:37:00.548Z,16.6
2023-03-23T09:38:00.502Z,16.7
2023-03-23T09:39:00.494Z,16.8
2023-03-23T09:40:06.732Z,16.8
2023-03-23T09:41:00.514Z,16.8
2023-03-23T09:42:00.523Z,16.8
2023-03-23T09:43:00.518Z,16.8
2023-03-23T09:44:00.494Z,16.8
2023-03-23T09:45:00.504Z,16.9
2023-03-23T09:46:00.522Z,16.9
2023-03-23T09:47:00.540Z,16.9
2023-03-23T09:48:01.099Z,16.9
2023-03-23T09:49:00.523Z,16.9
2023-03-23T09:50:00.515Z,16.9
2023-03-23T09:51:00.504Z,16.9
2023-03-23T09:52:00.541Z,17
2023-03-23T09:53:00.510Z,17
2023-03-23T09:54:00.510Z,17.1
2023-03-23T09:55:00.530Z,17.1
2023-03-23T09:56:00.517Z,17.1
2023-03-23T09:57:00.534Z,17.1
2023-03-23T09:58:00.512Z,17.1
2023-03-23T09:59:00.524Z,17.1
2023-03-23T10:00:00.523Z,17.2
2023-03-23T10:01:00.571Z,17.2
2023-03-23T10:02:00.556Z,17.2
2023-03-23T10:03:00.518Z,17.3
2023-03-23T10:04:00.520Z,17.2
2023-03-23T10:05:00.531Z,17.3
2023-03-23T10:06:00.537Z,17.4
2023-03-23T10:07:00.546Z,17.4
2023-03-23T10:08:00.568Z,17.4
2023-03-23T10:09:00.540Z,17.4
2023-03-23T10:10:00.541Z,17.4
2023-03-23T10:11:00.528Z,17.4
2023-03-23T10:12:00.551Z,17.4
2023-03-23T10:13:00.664Z,17.6
2023-03-23T10:14:00.529Z,17.7
2023-03-23T10:15:00.531Z,17.7
2023-03-23T10:16:00.603Z,17.8
2023-03-23T10:17:00.607Z,17.8
2023-03-23T10:18:00.578Z,17.8
2023-03-23T10:19:00.706Z,17.9
2023-03-23T10:20:00.569Z,17.9
2023-03-23T10:21:00.553Z,18
2023-03-23T10:22:00.777Z,18.1
2023-03-23T10:23:00.628Z,18.1
2023-03-23T10:24:00.563Z,18
2023-03-23T10:25:00.737Z,18
2023-03-23T10:26:00.598Z,18
2023-03-23T10:27:00.665Z,18.1
2023-03-23T10:28:00.651Z,18.1
2023-03-23T10:29:00.602Z,18.1
2023-03-23T10:30:01.073Z,18.2
2023-03-23T10:31:00.672Z,18.2
2023-03-23T10:32:00.727Z,18.4
2023-03-23T10:33:00.704Z,18.4
2023-03-23T10:34:00.754Z,18.4
2023-03-23T10:35:00.720Z,18.6
2023-03-23T10:36:00.733Z,18.6
2023-03-23T10:37:00.837Z,18.6
2023-03-23T10:38:00.741Z,18.7
2023-03-23T10:39:00.906Z,18.7
2023-03-23T10:40:00.749Z,18.8
2023-03-23T10:41:01.514Z,18.7
2023-03-23T10:42:00.796Z,18.7
2023-03-23T10:43:00.764Z,18.7
2023-03-23T10:44:00.845Z,18.6
2023-03-23T10:45:00.889Z,18.6
2023-03-23T10:46:01.118Z,18.5
2023-03-23T10:47:00.814Z,18.5
2023-03-23T10:48:00.838Z,18.6
2023-03-23T10:49:00.718Z,18.5
2023-03-23T10:50:00.867Z,18.4
2023-03-23T10:51:00.694Z,18.4
2023-03-23T10:52:00.808Z,18.4
2023-03-23T10:53:00.748Z,18.4
2023-03-23T10:54:00.716Z,18.4
2023-03-23T10:55:00.589Z,18.3
2023-03-23T10:56:00.595Z,18.2
2023-03-23T10:57:02.519Z,18.2
2023-03-23T10:58:00.578Z,18.2
2023-03-23T10:59:00.592Z,18.2
2023-03-23T11:00:00.582Z,18.2
2023-03-23T11:01:00.608Z,18.2
2023-03-23T11:02:00.588Z,18.2
2023-03-23T11:03:00.583Z,18.2
2023-03-23T11:04:00.590Z,18.3
2023-03-23T11:05:03.085Z,18.2
2023-03-23T11:06:00.603Z,18.2
2023-03-23T11:07:00.603Z,18.2
2023-03-23T11:08:00.604Z,18.2
2023-03-23T11:09:00.588Z,18.3
2023-03-23T11:10:00.589Z,18.4
2023-03-23T11:11:00.619Z,18.4
2023-03-23T11:12:02.551Z,18.4
2023-03-23T11:13:00.613Z,18.3
2023-03-23T11:14:00.611Z,18.3
2023-03-23T11:15:00.598Z,18.2
2023-03-23T11:16:00.624Z,18.2
2023-03-23T11:17:06.939Z,18.3
2023-03-23T11:18:00.602Z,18.3
2023-03-23T11:19:00.626Z,18.4
2023-03-23T11:20:00.618Z,18.4
2023-03-23T11:21:00.619Z,18.4
2023-03-23T11:22:00.615Z,18.3
2023-03-23T11:23:00.633Z,18.3
2023-03-23T11:24:09.731Z,18.3
2023-03-23T11:25:00.606Z,18.3
2023-03-23T11:26:00.635Z,18.2
2023-03-23T11:27:00.633Z,18.3
2023-03-23T11:28:00.626Z,18.4
2023-03-23T11:29:00.612Z,18.4
2023-03-23T11:30:00.613Z,18.5
2023-03-23T11:31:00.634Z,18.6
2023-03-23T11:32:00.613Z,18.6
2023-03-23T11:33:00.614Z,18.6
2023-03-23T11:34:06.266Z,18.6
2023-03-23T11:35:13.785Z,18.7
2023-03-23T11:36:00.646Z,18.6
2023-03-23T11:37:00.628Z,18.7
2023-03-23T11:38:00.632Z,18.6
2023-03-23T11:39:00.652Z,18.7
2023-03-23T11:40:00.648Z,18.8
2023-03-23T11:41:00.638Z,18.8
2023-03-23T11:42:09.344Z,18.8
2023-03-23T11:43:00.623Z,18.9
2023-03-23T11:44:00.623Z,19
2023-03-23T11:45:00.635Z,19.1
2023-03-23T11:46:00.663Z,19.2
2023-03-23T11:47:00.637Z,19.3
2023-03-23T11:48:00.630Z,19.3
2023-03-23T11:49:00.665Z,19.4
2023-03-23T11:50:00.649Z,19.4
2023-03-23T11:51:00.647Z,19.6
2023-03-23T11:52:00.635Z,19.6
2023-03-23T11:53:00.635Z,19.6
2023-03-23T11:54:00.634Z,19.6
2023-03-23T11:55:00.662Z,19.6
2023-03-23T11:56:00.723Z,19.6
2023-03-23T11:57:00.659Z,19.6
2023-03-23T11:58:00.637Z,19.5
2023-03-23T11:59:00.651Z,19.4
2023-03-23T12:00:00.785Z,19.5
2023-03-23T12:01:00.658Z,19.5
2023-03-23T12:02:11.635Z,19.5
2023-03-23T12:03:00.670Z,19.5
2023-03-23T12:04:00.645Z,19.5
2023-03-23T12:05:00.670Z,19.4
2023-03-23T12:06:00.676Z,19.4
2023-03-23T12:07:00.686Z,19.4
2023-03-23T12:08:00.664Z,19.4
2023-03-23T12:09:00.697Z,19.4
2023-03-23T12:10:00.670Z,19.3
2023-03-23T12:11:01.936Z,19.3
2023-03-23T12:12:00.649Z,19.2
2023-03-23T12:13:00.678Z,19.1
2023-03-23T12:14:00.650Z,19.1
2023-03-23T12:15:00.696Z,19.1
2023-03-23T12:16:00.674Z,19.1
2023-03-23T12:17:00.651Z,19.1
2023-03-23T12:18:00.674Z,19
2023-03-23T12:19:00.666Z,19
2023-03-23T12:20:00.696Z,19
2023-03-23T12:21:00.678Z,18.9
2023-03-23T12:22:00.665Z,18.8
2023-03-23T12:23:00.665Z,18.7
2023-03-23T12:24:03.115Z,18.6
2023-03-23T12:25:00.691Z,18.6
2023-03-23T12:26:00.672Z,18.6
2023-03-23T12:27:00.697Z,18.6
2023-03-23T12:28:00.658Z,18.7
2023-03-23T12:29:00.659Z,18.8
2023-03-23T12:30:00.636Z,18.8
2023-03-23T12:31:00.593Z,18.7
2023-03-23T12:32:00.597Z,18.6
2023-03-23T12:33:00.528Z,18.5
2023-03-23T12:34:00.488Z,18.5
2023-03-23T12:35:00.453Z,18.5
2023-03-23T12:36:00.461Z,18.4
2023-03-23T12:37:00.416Z,18.4
2023-03-23T12:38:00.376Z,18.3
2023-03-23T12:39:00.370Z,18.3
2023-03-23T12:40:00.351Z,18.2
2023-03-23T12:41:00.284Z,18.2
2023-03-23T12:42:00.261Z,18.2
2023-03-23T12:43:00.275Z,18.2
2023-03-23T12:44:00.294Z,18.1
2023-03-23T12:45:00.268Z,18.1
2023-03-23T12:46:00.276Z,18
2023-03-23T12:47:00.259Z,17.9
2023-03-23T12:48:00.260Z,17.9
2023-03-23T12:49:00.287Z,17.9
2023-03-23T12:50:00.308Z,17.9
2023-03-23T12:51:00.266Z,17.9
2023-03-23T12:52:00.298Z,17.9
2023-03-23T12:53:00.287Z,17.9
2023-03-23T12:54:00.290Z,17.8
2023-03-23T12:55:00.270Z,17.8
2023-03-23T12:56:00.283Z,17.7
2023-03-23T12:57:00.266Z,17.7
2023-03-23T12:58:00.279Z,17.7
2023-03-23T12:59:00.333Z,17.7
2023-03-23T13:00:00.285Z,17.6
2023-03-23T13:01:00.282Z,17.6
2023-03-23T13:02:00.277Z,17.7
2023-03-23T13:03:00.267Z,17.7
2023-03-23T13:04:00.305Z,17.7
2023-03-23T13:05:00.272Z,17.7
2023-03-23T13:06:00.298Z,17.6
2023-03-23T13:07:00.290Z,17.6
2023-03-23T13:08:00.275Z,17.6
2023-03-23T13:09:00.327Z,17.5
2023-03-23T13:10:00.317Z,17.5
2023-03-23T13:11:00.284Z,17.4
2023-03-23T13:12:00.314Z,17.4
2023-03-23T13:13:00.303Z,17.4
2023-03-23T13:14:00.302Z,17.3
2023-03-23T13:15:00.303Z,17.2
2023-03-23T13:16:00.301Z,17.2
2023-03-23T13:17:00.304Z,17.2
2023-03-23T13:18:00.290Z,17.2
2023-03-23T13:19:00.299Z,17.2
2023-03-23T13:20:00.287Z,17.2
2023-03-23T13:21:00.291Z,17.2
2023-03-23T13:22:00.314Z,17.3
2023-03-23T13:23:00.293Z,17.4
2023-03-23T13:24:00.317Z,17.4
2023-03-23T13:25:00.296Z,17.4
2023-03-23T13:26:00.303Z,17.4
2023-03-23T13:27:00.312Z,17.4
2023-03-23T13:28:00.303Z,17.3
2023-03-23T13:29:00.332Z,17.3
2023-03-23T13:30:00.321Z,17.2
2023-03-23T13:31:00.327Z,17.2
2023-03-23T13:32:00.392Z,17.2
2023-03-23T13:33:00.300Z,17.2
2023-03-23T13:34:00.320Z,17.2
2023-03-23T13:35:00.307Z,17.1
2023-03-23T13:36:00.739Z,17.1
2023-03-23T13:37:00.327Z,17.1